Terminal Aerodrome Forecast
Issued by NWS

Home | Current Version | Previous Version | Text Only | Print | Product List | Glossary On
Versions: 1 2 3 4 5 6 7 8 9 10 11 12 13 14 15 16 17 18 19 20 21 22 23 24 25 26 27 28
000
FTUS42 KTBW 300138 AAA
TAFPIE
TAF AMD
KPIE 300138Z 3002/3024 VRB03KT P6SM BKN015
      TEMPO 3002/3004 SCT015 BKN035
     FM301200 VRB03KT P6SM VCTS SCT035CB BKN090
     FM301500 25007KT P6SM VCSH SCT035 BKN090=

USA.gov is the U.S. government's official web portal to all federal, state and local government web resources and services.